Latest Weather Observations for Cocos Island

IDW60801

Issued at 6:43 am WST Sunday 28 November 2021 (issued every 10 minutes, with the page automatically refreshed every 10 minutes)

About weather observations | Map of weather stations | Latest weather observations for WA | Other Formats
Station Details ID: 200284 Name: COCOS ISLAND AIRPORT Lat: -12.19 Lon: 96.83 Height: 3.0 m
Data from the previous 72 hours. | See also: Recent months at Cocos Island
Date/Time
WST
Temp
°C
App
Temp
°C
Dew
Point
°C
Rel
Hum
%
Delta-T
°C
Wind Press
QNH
hPa
Press
MSL
hPa
Rain since
9am
mm
Dir  Spd
km/h
Gust
km/h
Spd
kts
Gust
kts
28/06:30am 26.3 31.0 24.9 92 1.0 NE 9 13 5 7 1009.6 1009.6 1.2
28/06:00am 26.2 30.4 24.8 92 1.0 NE 11 19 6 10 1009.5 1009.5 1.2
28/05:34am 26.2 30.2 24.4 90 1.2 NE 11 17 6 9 1009.4 1009.4 1.2
28/05:30am 26.3 30.7 24.5 90 1.2 NE 9 17 5 9 1009.4 1009.4 1.2
28/05:13am 26.5 30.5 25.1 92 1.0 ENE 13 20 7 11 1009.3 1009.3 1.2
28/05:00am 26.4 31.1 25.0 92 1.0 NE 9 15 5 8 1009.3 1009.3 1.2
28/04:53am 26.7 31.5 25.1 91 1.1 ENE 9 13 5 7 1009.4 1009.4 1.0
28/04:30am 26.8 31.9 25.0 90 1.3 NNE 7 11 4 6 1009.3 1009.3 0.2
28/04:21am 26.7 31.0 24.9 90 1.3 NNE 11 15 6 8 1009.3 1009.3 0.2
28/04:00am 26.9 31.2 24.9 89 1.4 ENE 11 15 6 8 1009.3 1009.3 0.2
28/03:30am 26.9 31.6 24.9 89 1.4 ENE 9 13 5 7 1009.2 1009.2 0.2
28/03:00am 26.9 31.2 24.9 89 1.4 ENE 11 17 6 9 1009.6 1009.6 0.2
28/02:30am 27.0 31.2 24.8 88 1.5 ENE 11 17 6 9 1009.9 1009.9 0.2
28/02:00am 27.0 31.4 25.0 89 1.4 ENE 11 17 6 9 1010.2 1010.2 0.2
28/01:30am 27.1 31.3 25.3 90 1.3 ENE 13 19 7 10 1010.4 1010.4 0.2
28/01:00am 27.0 30.7 25.2 90 1.3 ENE 15 22 8 12 1010.6 1010.6 0.2
28/12:51am 27.0 31.5 25.2 90 1.3 ENE 11 19 6 10 1010.7 1010.7 0.2
28/12:30am 27.0 31.1 25.2 90 1.3 ENE 13 20 7 11 1010.8 1010.8 0.2
28/12:00am 27.1 30.5 25.3 90 1.3 ENE 17 20 9 11 1011.0 1011.0 0.2
 
Date/Time
WST
Temp
°C
App
Temp
°C
Dew
Point
°C
Rel
Hum
%
Delta-T
°C
Wind Press
QNH
hPa
Press
MSL
hPa
Rain since
9am
mm
Dir  Spd
km/h
Gust
km/h
Spd
kts
Gust
kts
27/11:30pm 27.1 30.8 25.1 89 1.4 ENE 15 20 8 11 1010.9 1010.9 0.2
27/11:18pm 27.0 31.4 25.0 89 1.4 ENE 11 17 6 9 1011.0 1011.0 0.2
27/11:00pm 27.0 31.6 24.8 88 1.5 NE 9 13 5 7 1011.0 1011.0 0.2
27/10:30pm 27.0 31.5 24.6 87 1.7 NNE 9 15 5 8 1010.9 1010.9 0.2
27/10:00pm 26.9 31.5 24.7 88 1.5 NE 9 13 5 7 1010.6 1010.6 0.2
27/09:30pm 27.0 31.6 24.8 88 1.5 NE 9 13 5 7 1010.5 1010.5 0.2
27/09:00pm 27.0 31.6 24.8 88 1.5 NNE 9 13 5 7 1010.2 1010.2 0.2
27/08:30pm 26.9 31.7 24.5 87 1.7 NNE 7 11 4 6 1009.8 1009.8 0.2
27/08:00pm 26.8 31.4 24.8 89 1.4 NNE 9 11 5 6 1009.5 1009.5 0.2
27/07:30pm 26.8 31.5 25.0 90 1.3 N 9 15 5 8 1009.2 1009.2 0.2
27/07:00pm 27.1 30.9 24.7 87 1.7 NNE 13 17 7 9 1008.8 1008.8 0.2
27/06:30pm 27.5 31.9 24.4 83 2.1 NNE 9 13 5 7 1008.5 1008.5 0.2
27/06:00pm 27.4 30.5 24.8 86 1.8 NNE 17 20 9 11 1008.5 1008.5 0.2
27/05:30pm 27.8 30.6 25.2 86 1.8 NNE 20 28 11 15 1008.4 1008.4 0.2
27/05:00pm 28.4 32.6 26.0 87 1.7 NE 15 19 8 10 1008.3 1008.3 0.2
27/04:30pm 28.0 31.2 25.0 84 2.1 NNE 17 22 9 12 1008.4 1008.4 0.2
27/04:00pm 28.1 32.3 25.9 88 1.6 NNE 15 19 8 10 1008.5 1008.5 0.2
27/03:30pm 27.4 30.9 25.4 89 1.4 NNE 17 20 9 11 1008.9 1008.9 0.2
27/03:00pm 26.8 30.5 25.2 91 1.1 N 15 26 8 14 1009.1 1009.1 0.2
27/02:57pm 26.5 29.5 24.7 90 1.2 N 17 26 9 14 1009.1 1009.1 0.2
27/02:39pm 25.9 26.9 24.1 90 1.2 NNE 26 32 14 17 1009.2 1009.2 0.0
27/02:30pm 27.2 29.4 23.9 82 2.3 NNE 19 30 10 16 1009.3 1009.3 0.0
27/02:00pm 27.5 29.9 23.7 80 2.6 NNE 17 28 9 15 1009.5 1009.5 0.0
27/01:30pm 28.4 31.9 25.4 84 2.1 NNE 17 20 9 11 1009.6 1009.6 0.0
27/01:00pm 28.7 32.4 25.1 81 2.5 NNE 15 20 8 11 1010.1 1010.1 0.0
27/12:30pm 28.9 32.4 25.5 82 2.4 NNE 17 19 9 10 1010.3 1010.3 0.0
27/12:11pm 28.7 32.8 25.7 84 2.1 NNE 15 19 8 10 1010.3 1010.3 0.0
27/12:00pm 28.4 32.3 25.4 84 2.1 NNE 15 19 8 10 1010.4 1010.4 0.0
27/11:40am 28.2 31.6 25.2 84 2.1 NNE 17 20 9 11 1010.6 1010.6 0.0
27/11:30am 28.1 31.3 24.9 83 2.2 NNE 17 20 9 11 1010.6 1010.6 0.0
27/11:00am 28.5 31.8 25.1 82 2.4 NNE 17 20 9 11 1010.7 1010.7 1.8
27/10:30am 28.4 32.3 24.8 81 2.5 NNE 13 17 7 9 1010.7 1010.7 1.8
27/10:00am 29.2 34.3 25.6 81 2.5 ENE 9 15 5 8 1010.6 1010.6 1.8
27/09:30am 28.5 32.8 24.9 81 2.5 NE 11 17 6 9 1010.2 1010.2 1.8
27/09:00am 28.2 33.1 25.2 84 2.1 NE 9 13 5 7 1009.7 1009.7 1.8
27/08:30am 27.7 32.6 25.3 87 1.7 ENE 9 15 5 8 1009.2 1009.2 1.8
27/08:00am 27.0 31.4 25.0 89 1.4 ENE 11 15 6 8 1009.0 1009.0 1.8
27/07:30am 26.2 30.7 25.2 94 0.7 ENE 11 15 6 8 1008.6 1008.6 1.8
27/07:00am 26.0 30.4 25.0 94 0.7 E 11 13 6 7 1008.4 1008.4 1.8
27/06:30am 26.0 30.7 25.0 94 0.7 E 9 11 5 6 1008.2 1008.2 1.8
27/06:00am 25.9 31.2 24.9 94 0.7 ESE 6 9 3 5 1007.9 1007.9 1.8
27/05:30am 25.8 31.0 24.8 94 0.7 ESE 6 9 3 5 1007.9 1007.9 1.8
27/05:00am 26.1 31.3 25.1 94 0.7 E 7 11 4 6 1008.0 1008.0 1.8
27/04:30am 26.1 30.9 25.1 94 0.7 E 9 13 5 7 1008.0 1008.0 1.8
27/04:00am 25.9 31.2 24.9 94 0.7 ESE 6 9 3 5 1008.0 1008.0 1.8
27/03:30am 26.0 31.3 25.0 94 0.7 ESE 6 9 3 5 1008.1 1008.1 1.8
27/03:00am 26.1 31.3 25.1 94 0.7 ESE 7 11 4 6 1008.4 1008.4 1.8
27/02:30am 26.2 31.5 25.2 94 0.7 ESE 7 11 4 6 1008.8 1008.8 1.8
27/02:00am 26.3 31.2 25.3 94 0.7 ESE 9 13 5 7 1009.1 1009.1 1.8
27/01:37am 26.4 31.3 25.2 93 0.8 ESE 9 13 5 7 1009.3 1009.3 1.8
27/01:30am 26.5 31.6 25.5 94 0.7 ESE 9 13 5 7 1009.4 1009.4 1.8
27/01:16am 26.5 31.6 25.5 94 0.7 ESE 9 13 5 7 1009.6 1009.6 1.8
27/01:00am 26.3 31.5 25.1 93 0.8 ESE 7 11 4 6 1009.7 1009.7 1.8
27/12:30am 26.6 31.3 25.0 91 1.1 ESE 9 13 5 7 1009.9 1009.9 1.8
27/12:00am 26.8 30.8 25.0 90 1.3 E 13 17 7 9 1010.2 1010.2 1.8
 
Date/Time
WST
Temp
°C
App
Temp
°C
Dew
Point
°C
Rel
Hum
%
Delta-T
°C
Wind Press
QNH
hPa
Press
MSL
hPa
Rain since
9am
mm
Dir  Spd
km/h
Gust
km/h
Spd
kts
Gust
kts
26/11:30pm 26.7 31.5 24.4 87 1.6 ESE 7 11 4 6 1010.0 1010.0 1.8
26/11:00pm 26.6 31.0 24.4 88 1.5 ESE 9 13 5 7 1009.9 1009.9 1.8
26/10:30pm 26.7 31.1 24.5 88 1.5 ESE 9 13 5 7 1009.8 1009.8 1.8
26/10:00pm 26.6 30.6 24.4 88 1.5 ESE 11 17 6 9 1009.4 1009.4 1.8
26/09:30pm 26.7 29.6 24.4 87 1.6 SE 17 20 9 11 1009.3 1009.3 1.8
26/09:00pm 26.6 29.0 24.3 87 1.6 SE 19 22 10 12 1009.0 1009.0 1.8
26/08:30pm 26.4 29.6 25.0 92 1.0 SE 17 20 9 11 1008.9 1008.9 1.8
26/08:00pm 26.3 29.3 24.7 91 1.1 SE 17 22 9 12 1008.8 1008.8 1.8
26/07:30pm 26.4 29.4 24.6 90 1.2 SE 17 20 9 11 1008.3 1008.3 1.8
26/07:00pm 26.4 28.9 24.8 91 1.1 SE 20 26 11 14 1008.0 1008.0 1.8
26/06:30pm 27.3 30.6 25.1 88 1.5 SE 17 20 9 11 1007.7 1007.7 1.8
26/06:00pm 27.6 30.6 24.6 84 2.1 SE 17 26 9 14 1007.4 1007.4 1.8
26/05:30pm 27.8 30.6 25.0 85 2.0 SE 19 22 10 12 1007.4 1007.4 1.8
26/05:00pm 27.7 31.1 25.3 87 1.7 SE 17 20 9 11 1007.3 1007.3 1.8
26/04:30pm 27.3 30.5 24.9 87 1.7 SE 17 20 9 11 1007.2 1007.2 1.8
26/04:00pm 27.7 31.8 24.5 83 2.2 ESE 11 15 6 8 1007.4 1007.4 1.8
26/03:30pm 27.4 31.8 25.0 87 1.7 E 11 15 6 8 1007.6 1007.6 1.8
26/03:00pm 27.8 32.3 25.8 89 1.4 ENE 13 17 7 9 1007.7 1007.7 1.8
26/02:40pm 27.1 31.5 25.1 89 1.4 ENE 11 15 6 8 1008.0 1008.0 1.6
26/02:30pm 27.0 31.5 25.2 90 1.3 ENE 11 15 6 8 1008.2 1008.2 1.6
26/02:20pm 27.0 31.6 25.4 91 1.1 ENE 11 15 6 8 1008.3 1008.3 1.6
26/02:00pm 26.7 31.9 25.1 91 1.1 E 7 9 4 5 1008.5 1008.5 1.6
26/01:30pm 26.1 31.4 24.9 93 0.8 ESE 6 6 3 3 1008.7 1008.7 1.6
26/01:00pm 25.5 29.9 24.5 94 0.7 E 9 11 5 6 1009.2 1009.2 1.6
26/12:30pm 25.6 29.0 24.6 94 0.7 ENE 15 17 8 9 1009.8 1009.8 1.6
26/12:00pm 25.4 29.0 24.4 94 0.7 NNE 13 19 7 10 1009.8 1009.8 1.2
26/11:46am 25.2 27.9 24.2 94 0.7 NNE 17 20 9 11 1010.0 1010.0 1.0
26/11:30am 25.2 27.9 24.2 94 0.7 NNE 17 20 9 11 1010.1 1010.1 1.0
26/11:24am 25.1 27.8 24.1 94 0.7 NNE 17 20 9 11 1010.2 1010.2 0.8
26/11:12am 25.0 28.0 24.0 94 0.7 NNE 15 20 8 11 1010.2 1010.2 0.6
26/11:00am 25.1 28.2 24.1 94 0.7 NNE 15 20 8 11 1010.2 1010.2 -
26/10:30am 25.1 27.4 24.1 94 0.7 NE 19 24 10 13 1010.1 1010.1 -
26/10:14am 25.4 27.9 24.4 94 0.7 NE 19 26 10 14 1010.4 1010.4 -
26/10:13am 25.4 27.9 24.4 94 0.7 NE 19 28 10 15 1010.4 1010.4 -
26/10:11am 25.3 27.5 24.3 94 0.7 NE 20 28 11 15 1010.4 1010.4 -
26/10:00am 25.4 27.3 24.4 94 0.7 NE 22 30 12 16 1010.2 1010.2 -
26/09:38am 25.6 30.1 24.6 94 0.7 E 9 20 5 11 1010.2 1010.2 -
26/09:36am 25.9 30.6 24.9 94 0.7 ESE 9 13 5 7 1010.1 1010.1 -
26/09:30am 25.9 30.6 24.9 94 0.7 ESE 9 13 5 7 1010.0 1010.0 -
26/09:00am 26.0 29.9 24.8 93 0.8 S 13 24 7 13 1009.5 1009.5 -
26/08:30am 26.1 29.5 24.1 89 1.4 ENE 13 19 7 10 1009.2 1009.2 -
26/08:00am 25.9 29.2 24.5 92 1.0 E 15 20 8 11 1009.0 1009.0 -
26/07:30am 25.7 28.6 24.5 93 0.8 E 17 22 9 12 1008.5 1008.5 -
26/07:00am 25.3 26.3 24.1 93 0.8 E 26 30 14 16 1008.0 1008.0 -
26/06:30am 25.5 25.4 24.5 94 0.7 E 33 37 18 20 1007.6 1007.6 -
26/06:00am 25.7 27.0 24.7 94 0.7 E 26 32 14 17 1007.3 1007.3 -
26/05:41am 25.5 25.9 24.5 94 0.7 E 30 35 16 19 1007.0 1007.0 -
26/05:36am 25.4 25.8 24.4 94 0.7 E 30 35 16 19 1007.0 1007.0 -
26/05:30am 25.4 26.2 24.4 94 0.7 E 28 35 15 19 1007.0 1007.0 -
26/05:23am 25.3 26.0 24.3 94 0.7 E 28 35 15 19 1007.0 1007.0 -
26/05:00am 25.2 26.6 24.2 94 0.7 ENE 24 30 13 16 1007.2 1007.2 4.0
26/04:31am 25.7 28.6 24.5 93 0.8 ESE 17 33 9 18 1007.1 1007.1 -
26/04:30am 25.5 28.1 23.9 91 1.1 ESE 17 24 9 13 1007.0 1007.0 -
26/04:00am 25.9 29.2 24.5 92 1.0 ESE 15 22 8 12 1007.1 1007.1 -
26/03:30am 26.1 29.0 24.5 91 1.1 ESE 17 20 9 11 1007.2 1007.2 -
26/03:00am 26.1 28.6 24.5 91 1.1 SE 19 26 10 14 1007.6 1007.6 -
26/02:30am 26.3 30.2 24.2 88 1.4 ESE 11 15 6 8 1008.4 1008.4 -
26/02:00am 26.2 29.8 24.4 90 1.2 ESE 13 24 7 13 1008.4 1008.4 -
26/01:30am 26.5 29.8 24.5 89 1.4 ESE 15 24 8 13 1008.6 1008.6 -
26/01:00am 26.3 29.5 24.3 89 1.4 ESE 15 24 8 13 1008.9 1008.9 -
26/12:37am 26.5 29.9 24.7 90 1.2 ESE 15 26 8 14 1009.2 1009.2 -
26/12:30am 26.3 29.6 24.5 90 1.2 ESE 15 24 8 13 1009.2 1009.2 -
26/12:21am 26.4 29.3 24.4 89 1.4 ESE 17 26 9 14 1009.3 1009.3 -
26/12:00am 26.9 28.7 24.9 89 1.4 E 24 30 13 16 1009.4 1009.4 -
 
Date/Time
WST
Temp
°C
App
Temp
°C
Dew
Point
°C
Rel
Hum
%
Delta-T
°C
Wind Press
QNH
hPa
Press
MSL
hPa
Rain since
9am
mm
Dir  Spd
km/h
Gust
km/h
Spd
kts
Gust
kts
25/11:30pm 27.0 29.5 24.8 88 1.5 E 20 24 11 13 1009.4 1009.4 -
25/11:00pm 27.1 28.8 24.7 87 1.7 E 24 26 13 14 1009.3 1009.3 -
25/10:30pm 26.9 28.5 24.5 87 1.7 ENE 24 28 13 15 1009.1 1009.1 -
25/10:00pm 26.7 29.0 25.1 91 1.1 ENE 22 28 12 15 1008.8 1008.8 -
25/09:30pm 26.6 28.8 24.8 90 1.3 ENE 22 28 12 15 1008.6 1008.6 -
25/09:00pm 27.1 28.0 24.6 86 1.7 E 28 33 15 18 1008.3 1008.3 -
25/08:30pm 27.0 28.0 24.8 88 1.5 ENE 28 33 15 18 1008.2 1008.2 -
25/08:00pm 27.2 28.5 25.2 89 1.4 E 28 32 15 17 1007.9 1007.9 -
25/07:30pm 27.2 28.7 25.0 88 1.5 E 26 32 14 17 1007.6 1007.6 -
25/07:00pm 27.2 27.7 25.2 89 1.4 E 32 37 17 20 1007.2 1007.2 -
25/06:30pm 27.4 28.8 25.4 89 1.4 E 28 35 15 19 1007.0 1007.0 -
25/06:00pm 27.6 28.2 25.4 88 1.5 E 32 37 17 20 1006.4 1006.4 -
25/05:46pm 27.3 28.0 25.5 90 1.3 E 32 37 17 20 1006.1 1006.1 -
25/05:30pm 27.5 28.2 25.5 89 1.4 E 32 35 17 19 1005.8 1005.8 -
25/05:25pm 27.4 28.0 25.4 89 1.4 E 32 35 17 19 1005.8 1005.8 -
25/05:05pm 27.5 29.7 25.5 89 1.4 E 24 33 13 18 1005.9 1005.9 -
25/05:00pm 27.4 28.8 24.8 86 1.8 E 26 33 14 18 1005.9 1005.9 -
25/04:30pm 27.3 28.6 25.3 89 1.4 E 28 32 15 17 1006.1 1006.1 -
25/04:00pm 26.8 27.2 25.4 92 1.0 E 33 39 18 21 1006.5 1006.5 -
25/03:42pm 26.2 26.7 25.2 94 0.7 E 32 41 17 22 1006.8 1006.8 -
25/03:30pm 26.1 25.6 25.1 94 0.7 E 37 43 20 23 1007.0 1007.0 -
25/03:07pm 26.3 29.3 24.7 91 1.1 ENE 17 37 9 20 1007.4 1007.4 -
25/03:00pm 27.5 32.1 25.9 91 1.1 ENE 13 20 7 11 1007.5 1007.5 -
25/02:45pm 27.0 30.9 26.0 94 0.7 NE 17 26 9 14 1007.7 1007.7 -
25/02:30pm 26.6 30.2 25.6 94 0.7 NE 17 26 9 14 1007.9 1007.9 -
25/02:04pm 26.9 28.2 25.3 91 1.1 E 28 35 15 19 1008.0 1008.0 -
25/02:00pm 27.8 29.4 25.8 89 1.4 E 28 35 15 19 1007.9 1007.9 -
25/01:30pm 26.7 30.0 25.7 94 0.7 E 19 26 10 14 1008.3 1008.3 -
25/01:11pm 26.5 29.5 25.5 94 0.7 ESE 20 28 11 15 1008.6 1008.6 -
25/01:00pm 26.1 29.8 25.1 94 0.7 ESE 15 26 8 14 1008.7 1008.7 -
25/12:30pm 25.6 25.7 24.6 94 0.7 E 32 43 17 23 1008.8 1008.8 -
25/12:07pm 26.9 28.3 24.2 85 1.9 ESE 24 37 13 20 1008.8 1008.8 0.0
25/12:00pm 28.0 30.7 25.0 84 2.1 ESE 20 33 11 18 1008.9 1008.9 0.0
25/11:30am 28.6 29.5 25.2 82 2.4 E 30 33 16 18 1009.2 1009.2 0.0
25/11:00am 28.2 28.6 25.0 83 2.2 E 32 37 17 20 1009.2 1009.2 1.8
25/10:30am 27.7 28.8 24.9 85 2.0 E 28 33 15 18 1009.5 1009.5 1.8
25/10:00am 27.3 27.9 24.2 83 2.1 E 28 39 15 21 1009.4 1009.4 1.6
25/09:30am 26.9 29.4 24.4 86 1.7 ESE 19 28 10 15 1009.1 1009.1 1.6
25/09:00am 27.2 29.9 24.8 87 1.7 ESE 19 26 10 14 1008.9 1008.9 1.6
25/08:30am 26.8 28.4 24.5 87 1.6 ESE 24 33 13 18 1008.6 1008.6 1.6

Other formats

Comma delimited format used in spreadsheet applications
http://www.bom.gov.au/fwo/IDW60801/IDW60801.96996.axf

JavaScript Object Notation format (JSON) in row-major order
http://www.bom.gov.au/fwo/IDW60801/IDW60801.96996.json

Data quality

Most of these data are generated automatically and are frequently updated. Quality checks on data are not normally performed. It is possible for incorrect values to appear. Refer to information at About Latest Weather Observations and please check the disclaimer before using these data.